Didsbury, Canada
Current Conditions -  °F | °C
As of 9:00 AM on Saturday 22 Nov 2014 (Local Time) from CYQF Reporting Station
Overcast Overcast  
Wind Chill: -5°   Ceiling: 7500
Heat Index: -1°   Visibility: 15mi
Dew Point: -3°   Wind: 8mph
Humidity: 86%   Direction: 340°NNW
Pressure: 29.09"   Gusts: NA
Location:  51.67°N, 114.13°W
Report Text: CYQF 221600Z 34007KT 15SM OVC075 M01/M03 A2909 RMK AC8 VIRGA SLP886
Loading
Personal Weather Stations






























Interactive Weather Map New forecast layout! Learn more

10-Day Weather Forecast

Advertisements
Track Severe Weather on mobile